Vero Beach, Florida
Current Conditions -  °F | °C
As of 12:53 PM on Saturday 20 Dec 2014 (Local Time) from KVRB Reporting Station
Broken Clouds Broken Clouds  
Wind Chill: 76°   Ceiling: 3900
Heat Index: 76°   Visibility: 10mi
Dew Point: 59°   Wind: 6mph
Humidity: 56%   Direction: 100°E
Pressure: 30.07"   Gusts: NA
Location:  27.64°N, 80.39°W
Report Text: KVRB 201753Z 10005KT 10SM BKN039 BKN049 24/15 A3007 RMK AO2 SLP182 T02440150 10256 20128 58019
Loading
Personal Weather Stations






























Interactive Weather Map New forecast layout! Learn more

10-Day Weather Forecast

Advertisements
Track Severe Weather on mobile